Crestline, Kansas
Current Conditions -  °F | °C
As of 3:53 AM on Saturday 22 Nov 2014 (Local Time) from KJLN Reporting Station
Overcast Overcast  
Wind Chill: 56°   Ceiling: 2100
Heat Index: 56°   Visibility: 10mi
Dew Point: 48°   Wind: 18mph
Humidity: 75%   Direction: 180°S
Pressure: 30.08"   Gusts: NA
Location:  37.17°N, 94.7°W
Report Text: KJLN 220953Z AUTO 18016KT 10SM OVC021 13/09 A3008 RMK AO2 SLP183 T01330089
Loading
Personal Weather Stations






























Interactive Weather Map New forecast layout! Learn more

10-Day Weather Forecast

Advertisements
Track Severe Weather on mobile